sensor_id;sensor_type;location;lat;lon;timestamp;P1;durP1;ratioP1;P2;durP2;ratioP2
22064;SDS011;11197;53.110;8.468;2023-03-23T00:01:57;17.92;;;15.75;;
22064;SDS011;11197;53.110;8.468;2023-03-23T00:04:23;18.85;;;15.95;;
22064;SDS011;11197;53.110;8.468;2023-03-23T00:06:51;17.25;;;15.38;;
22064;SDS011;11197;53.110;8.468;2023-03-23T00:09:17;18.50;;;15.73;;
22064;SDS011;11197;53.110;8.468;2023-03-23T00:11:49;17.30;;;14.38;;
22064;SDS011;11197;53.110;8.468;2023-03-23T00:14:16;18.75;;;15.43;;
22064;SDS011;11197;53.110;8.468;2023-03-23T00:16:47;16.90;;;15.07;;
22064;SDS011;11197;53.110;8.468;2023-03-23T00:19:15;18.20;;;15.65;;
22064;SDS011;11197;53.110;8.468;2023-03-23T00:21:42;17.25;;;15.40;;
22064;SDS011;11197;53.110;8.468;2023-03-23T00:24:09;17.70;;;15.80;;
22064;SDS011;11197;53.110;8.468;2023-03-23T00:26:41;17.92;;;14.82;;
22064;SDS011;11197;53.110;8.468;2023-03-23T00:31:42;18.67;;;15.60;;
22064;SDS011;11197;53.110;8.468;2023-03-23T00:34:13;17.10;;;15.38;;
22064;SDS011;11197;53.110;8.468;2023-03-23T00:36:48;17.50;;;15.00;;
22064;SDS011;11197;53.110;8.468;2023-03-23T00:39:16;20.42;;;15.35;;
22064;SDS011;11197;53.110;8.468;2023-03-23T00:41:43;20.05;;;15.40;;
22064;SDS011;11197;53.110;8.468;2023-03-23T00:44:10;18.20;;;15.07;;
22064;SDS011;11197;53.110;8.468;2023-03-23T00:46:43;19.42;;;15.18;;
22064;SDS011;11197;53.110;8.468;2023-03-23T00:49:14;17.58;;;15.00;;
22064;SDS011;11197;53.110;8.468;2023-03-23T00:51:43;19.08;;;16.40;;
22064;SDS011;11197;53.110;8.468;2023-03-23T00:54:10;18.10;;;15.02;;
22064;SDS011;11197;53.110;8.468;2023-03-23T00:56:36;18.27;;;15.18;;
22064;SDS011;11197;53.110;8.468;2023-03-23T00:59:04;19.10;;;15.00;;
22064;SDS011;11197;53.110;8.468;2023-03-23T01:01:30;18.40;;;14.80;;
22064;SDS011;11197;53.110;8.468;2023-03-23T01:03:58;21.75;;;16.00;;
22064;SDS011;11197;53.110;8.468;2023-03-23T01:06:36;17.73;;;15.25;;
22064;SDS011;11197;53.110;8.468;2023-03-23T01:09:09;16.80;;;14.55;;
22064;SDS011;11197;53.110;8.468;2023-03-23T01:11:40;17.63;;;14.90;;
22064;SDS011;11197;53.110;8.468;2023-03-23T01:14:07;19.92;;;15.02;;
22064;SDS011;11197;53.110;8.468;2023-03-23T01:16:33;17.15;;;14.93;;
22064;SDS011;11197;53.110;8.468;2023-03-23T01:18:59;16.00;;;14.18;;
22064;SDS011;11197;53.110;8.468;2023-03-23T01:21:25;17.90;;;14.13;;
22064;SDS011;11197;53.110;8.468;2023-03-23T01:23:52;17.77;;;14.32;;
22064;SDS011;11197;53.110;8.468;2023-03-23T01:26:22;17.45;;;13.45;;
22064;SDS011;11197;53.110;8.468;2023-03-23T01:28:50;17.02;;;13.77;;
22064;SDS011;11197;53.110;8.468;2023-03-23T01:31:17;16.80;;;13.55;;
22064;SDS011;11197;53.110;8.468;2023-03-23T01:33:45;19.42;;;13.48;;
22064;SDS011;11197;53.110;8.468;2023-03-23T01:36:17;15.45;;;13.35;;
22064;SDS011;11197;53.110;8.468;2023-03-23T01:38:45;17.10;;;13.48;;
22064;SDS011;11197;53.110;8.468;2023-03-23T01:41:13;19.38;;;13.95;;
22064;SDS011;11197;53.110;8.468;2023-03-23T01:46:44;17.08;;;13.27;;
22064;SDS011;11197;53.110;8.468;2023-03-23T01:49:11;18.42;;;13.25;;
22064;SDS011;11197;53.110;8.468;2023-03-23T01:51:53;16.55;;;13.13;;
22064;SDS011;11197;53.110;8.468;2023-03-23T01:54:22;16.08;;;13.23;;
22064;SDS011;11197;53.110;8.468;2023-03-23T01:56:59;15.40;;;12.65;;
22064;SDS011;11197;53.110;8.468;2023-03-23T01:59:29;16.25;;;12.90;;
22064;SDS011;11197;53.110;8.468;2023-03-23T02:02:21;16.67;;;12.98;;
22064;SDS011;11197;53.110;8.468;2023-03-23T02:04:50;16.45;;;12.38;;
22064;SDS011;11197;53.110;8.468;2023-03-23T02:07:18;14.38;;;12.30;;
22064;SDS011;11197;53.110;8.468;2023-03-23T02:09:49;17.02;;;13.45;;
22064;SDS011;11197;53.110;8.468;2023-03-23T02:12:16;16.05;;;12.32;;
22064;SDS011;11197;53.110;8.468;2023-03-23T02:14:42;16.42;;;12.43;;
22064;SDS011;11197;53.110;8.468;2023-03-23T02:36:23;14.45;;;11.05;;
22064;SDS011;11197;53.110;8.468;2023-03-23T02:39:04;15.27;;;11.02;;
22064;SDS011;11197;53.110;8.468;2023-03-23T02:41:42;15.68;;;11.93;;
22064;SDS011;11197;53.110;8.468;2023-03-23T02:44:15;16.38;;;11.43;;
22064;SDS011;11197;53.110;8.468;2023-03-23T02:46:42;14.98;;;11.88;;
22064;SDS011;11197;53.110;8.468;2023-03-23T02:49:11;16.77;;;11.40;;
22064;SDS011;11197;53.110;8.468;2023-03-23T02:51:40;13.93;;;10.63;;
22064;SDS011;11197;53.110;8.468;2023-03-23T02:56:39;15.65;;;11.07;;
22064;SDS011;11197;53.110;8.468;2023-03-23T02:59:13;16.38;;;11.15;;
22064;SDS011;11197;53.110;8.468;2023-03-23T03:04:07;14.38;;;10.52;;
22064;SDS011;11197;53.110;8.468;2023-03-23T03:07:21;13.38;;;10.63;;
22064;SDS011;11197;53.110;8.468;2023-03-23T03:09:47;14.07;;;10.85;;
22064;SDS011;11197;53.110;8.468;2023-03-23T03:20:31;14.57;;;10.05;;
22064;SDS011;11197;53.110;8.468;2023-03-23T03:23:00;13.80;;;9.45;;
22064;SDS011;11197;53.110;8.468;2023-03-23T03:25:29;13.20;;;9.40;;
22064;SDS011;11197;53.110;8.468;2023-03-23T03:27:56;15.60;;;9.75;;
22064;SDS011;11197;53.110;8.468;2023-03-23T03:30:37;13.07;;;9.07;;
22064;SDS011;11197;53.110;8.468;2023-03-23T03:33:03;13.05;;;9.60;;
22064;SDS011;11197;53.110;8.468;2023-03-23T03:35:31;13.15;;;9.27;;
22064;SDS011;11197;53.110;8.468;2023-03-23T03:38:07;12.57;;;8.60;;
22064;SDS011;11197;53.110;8.468;2023-03-23T03:40:35;12.80;;;8.95;;
22064;SDS011;11197;53.110;8.468;2023-03-23T03:43:03;13.40;;;8.95;;
22064;SDS011;11197;53.110;8.468;2023-03-23T03:45:31;12.20;;;8.60;;
22064;SDS011;11197;53.110;8.468;2023-03-23T03:47:57;12.77;;;8.75;;
22064;SDS011;11197;53.110;8.468;2023-03-23T03:50:23;12.05;;;8.82;;
22064;SDS011;11197;53.110;8.468;2023-03-23T03:52:49;13.35;;;9.35;;
22064;SDS011;11197;53.110;8.468;2023-03-23T03:55:15;14.07;;;9.43;;
22064;SDS011;11197;53.110;8.468;2023-03-23T03:57:45;13.77;;;9.25;;
22064;SDS011;11197;53.110;8.468;2023-03-23T04:00:41;12.88;;;9.00;;
22064;SDS011;11197;53.110;8.468;2023-03-23T04:03:08;14.40;;;10.23;;
22064;SDS011;11197;53.110;8.468;2023-03-23T04:05:56;16.17;;;10.15;;
22064;SDS011;11197;53.110;8.468;2023-03-23T04:08:24;12.48;;;10.18;;
22064;SDS011;11197;53.110;8.468;2023-03-23T04:10:53;13.90;;;10.27;;
22064;SDS011;11197;53.110;8.468;2023-03-23T04:13:21;14.82;;;10.00;;
22064;SDS011;11197;53.110;8.468;2023-03-23T04:16:25;13.85;;;10.63;;
22064;SDS011;11197;53.110;8.468;2023-03-23T04:18:56;15.00;;;10.13;;
22064;SDS011;11197;53.110;8.468;2023-03-23T04:21:25;12.70;;;9.87;;
22064;SDS011;11197;53.110;8.468;2023-03-23T04:23:57;13.45;;;10.00;;
22064;SDS011;11197;53.110;8.468;2023-03-23T04:26:28;11.65;;;9.57;;
22064;SDS011;11197;53.110;8.468;2023-03-23T04:28:59;13.85;;;9.90;;
22064;SDS011;11197;53.110;8.468;2023-03-23T04:31:34;11.38;;;9.25;;
22064;SDS011;11197;53.110;8.468;2023-03-23T04:34:11;11.13;;;9.70;;
22064;SDS011;11197;53.110;8.468;2023-03-23T04:36:46;12.85;;;9.40;;
22064;SDS011;11197;53.110;8.468;2023-03-23T04:39:16;12.55;;;9.27;;
22064;SDS011;11197;53.110;8.468;2023-03-23T04:41:44;13.18;;;8.80;;
22064;SDS011;11197;53.110;8.468;2023-03-23T04:44:40;14.32;;;9.30;;
22064;SDS011;11197;53.110;8.468;2023-03-23T04:47:12;11.57;;;8.55;;
22064;SDS011;11197;53.110;8.468;2023-03-23T04:49:51;12.50;;;8.38;;
22064;SDS011;11197;53.110;8.468;2023-03-23T04:52:33;12.32;;;8.48;;
22064;SDS011;11197;53.110;8.468;2023-03-23T04:55:03;10.65;;;8.13;;
22064;SDS011;11197;53.110;8.468;2023-03-23T04:57:31;12.15;;;8.30;;
22064;SDS011;11197;53.110;8.468;2023-03-23T05:00:19;11.00;;;7.97;;
22064;SDS011;11197;53.110;8.468;2023-03-23T05:02:53;11.93;;;8.10;;
22064;SDS011;11197;53.110;8.468;2023-03-23T05:05:22;12.45;;;8.15;;
22064;SDS011;11197;53.110;8.468;2023-03-23T05:07:52;11.43;;;8.50;;
22064;SDS011;11197;53.110;8.468;2023-03-23T05:10:21;11.38;;;7.72;;
22064;SDS011;11197;53.110;8.468;2023-03-23T05:12:50;11.48;;;7.72;;
22064;SDS011;11197;53.110;8.468;2023-03-23T05:15:17;11.77;;;7.60;;
22064;SDS011;11197;53.110;8.468;2023-03-23T05:17:44;11.65;;;7.50;;
22064;SDS011;11197;53.110;8.468;2023-03-23T05:20:15;10.40;;;7.37;;
22064;SDS011;11197;53.110;8.468;2023-03-23T05:22:47;10.43;;;7.45;;
22064;SDS011;11197;53.110;8.468;2023-03-23T05:28:04;9.38;;;6.68;;
22064;SDS011;11197;53.110;8.468;2023-03-23T05:33:26;9.80;;;6.70;;
22064;SDS011;11197;53.110;8.468;2023-03-23T05:36:10;8.55;;;6.60;;
22064;SDS011;11197;53.110;8.468;2023-03-23T05:39:11;10.90;;;6.70;;
22064;SDS011;11197;53.110;8.468;2023-03-23T05:42:06;9.40;;;6.68;;
22064;SDS011;11197;53.110;8.468;2023-03-23T05:44:48;10.57;;;6.78;;
22064;SDS011;11197;53.110;8.468;2023-03-23T05:47:16;10.85;;;7.22;;
22064;SDS011;11197;53.110;8.468;2023-03-23T05:49:49;10.68;;;6.93;;
22064;SDS011;11197;53.110;8.468;2023-03-23T05:52:17;10.75;;;6.80;;
22064;SDS011;11197;53.110;8.468;2023-03-23T05:54:45;9.52;;;6.78;;
22064;SDS011;11197;53.110;8.468;2023-03-23T05:57:12;11.05;;;6.93;;
22064;SDS011;11197;53.110;8.468;2023-03-23T05:59:45;11.80;;;7.50;;
22064;SDS011;11197;53.110;8.468;2023-03-23T06:02:17;12.85;;;7.28;;
22064;SDS011;11197;53.110;8.468;2023-03-23T06:04:43;9.60;;;6.50;;
22064;SDS011;11197;53.110;8.468;2023-03-23T06:07:24;9.45;;;6.78;;
22064;SDS011;11197;53.110;8.468;2023-03-23T06:09:57;10.32;;;7.13;;
22064;SDS011;11197;53.110;8.468;2023-03-23T06:12:35;9.27;;;6.75;;
22064;SDS011;11197;53.110;8.468;2023-03-23T06:15:11;9.40;;;7.03;;
22064;SDS011;11197;53.110;8.468;2023-03-23T06:18:10;8.20;;;6.47;;
22064;SDS011;11197;53.110;8.468;2023-03-23T06:20:58;9.00;;;6.75;;
22064;SDS011;11197;53.110;8.468;2023-03-23T06:23:43;9.40;;;6.32;;
22064;SDS011;11197;53.110;8.468;2023-03-23T06:26:09;11.18;;;7.00;;
22064;SDS011;11197;53.110;8.468;2023-03-23T06:28:44;14.25;;;6.60;;
22064;SDS011;11197;53.110;8.468;2023-03-23T06:31:10;8.93;;;6.68;;
22064;SDS011;11197;53.110;8.468;2023-03-23T06:33:36;11.60;;;6.25;;
22064;SDS011;11197;53.110;8.468;2023-03-23T06:36:26;8.70;;;6.30;;
22064;SDS011;11197;53.110;8.468;2023-03-23T06:39:11;9.65;;;6.53;;
22064;SDS011;11197;53.110;8.468;2023-03-23T06:42:10;10.45;;;6.05;;
22064;SDS011;11197;53.110;8.468;2023-03-23T06:44:42;9.32;;;6.00;;
22064;SDS011;11197;53.110;8.468;2023-03-23T06:47:10;10.48;;;6.22;;
22064;SDS011;11197;53.110;8.468;2023-03-23T06:49:42;8.57;;;6.38;;
22064;SDS011;11197;53.110;8.468;2023-03-23T06:52:15;9.00;;;5.90;;
22064;SDS011;11197;53.110;8.468;2023-03-23T06:54:41;10.57;;;6.53;;
22064;SDS011;11197;53.110;8.468;2023-03-23T06:57:09;11.07;;;6.50;;
22064;SDS011;11197;53.110;8.468;2023-03-23T06:59:35;12.80;;;6.57;;
22064;SDS011;11197;53.110;8.468;2023-03-23T07:02:03;10.75;;;6.38;;
22064;SDS011;11197;53.110;8.468;2023-03-23T07:04:31;9.02;;;5.68;;
22064;SDS011;11197;53.110;8.468;2023-03-23T07:07:08;8.32;;;4.63;;
22064;SDS011;11197;53.110;8.468;2023-03-23T07:09:45;7.55;;;3.70;;
22064;SDS011;11197;53.110;8.468;2023-03-23T07:12:13;9.27;;;3.42;;
22064;SDS011;11197;53.110;8.468;2023-03-23T07:14:45;6.80;;;3.60;;
22064;SDS011;11197;53.110;8.468;2023-03-23T07:17:11;9.75;;;3.50;;
22064;SDS011;11197;53.110;8.468;2023-03-23T07:19:45;8.07;;;3.00;;
22064;SDS011;11197;53.110;8.468;2023-03-23T07:22:14;7.28;;;2.78;;
22064;SDS011;11197;53.110;8.468;2023-03-23T07:24:46;5.47;;;2.30;;
22064;SDS011;11197;53.110;8.468;2023-03-23T07:27:21;5.30;;;2.10;;
22064;SDS011;11197;53.110;8.468;2023-03-23T07:29:50;5.38;;;1.80;;
22064;SDS011;11197;53.110;8.468;2023-03-23T07:32:22;5.57;;;1.70;;
22064;SDS011;11197;53.110;8.468;2023-03-23T07:34:47;6.95;;;1.70;;
22064;SDS011;11197;53.110;8.468;2023-03-23T07:37:21;7.78;;;1.70;;
22064;SDS011;11197;53.110;8.468;2023-03-23T07:39:49;5.28;;;1.52;;
22064;SDS011;11197;53.110;8.468;2023-03-23T07:42:15;6.60;;;1.67;;
22064;SDS011;11197;53.110;8.468;2023-03-23T07:44:47;8.30;;;1.90;;
22064;SDS011;11197;53.110;8.468;2023-03-23T07:47:13;8.43;;;1.70;;
22064;SDS011;11197;53.110;8.468;2023-03-23T07:49:40;4.00;;;1.58;;
22064;SDS011;11197;53.110;8.468;2023-03-23T07:52:29;7.50;;;2.10;;
22064;SDS011;11197;53.110;8.468;2023-03-23T07:55:00;7.00;;;1.90;;
22064;SDS011;11197;53.110;8.468;2023-03-23T07:57:46;5.32;;;1.85;;
22064;SDS011;11197;53.110;8.468;2023-03-23T08:00:15;5.95;;;2.22;;
22064;SDS011;11197;53.110;8.468;2023-03-23T08:02:46;8.00;;;2.50;;
22064;SDS011;11197;53.110;8.468;2023-03-23T08:05:32;7.90;;;2.50;;
22064;SDS011;11197;53.110;8.468;2023-03-23T08:08:14;7.32;;;2.22;;
22064;SDS011;11197;53.110;8.468;2023-03-23T08:10:59;7.95;;;2.50;;
22064;SDS011;11197;53.110;8.468;2023-03-23T08:13:41;6.38;;;2.50;;
22064;SDS011;11197;53.110;8.468;2023-03-23T08:16:36;9.43;;;2.70;;
22064;SDS011;11197;53.110;8.468;2023-03-23T08:19:35;7.00;;;2.70;;
22064;SDS011;11197;53.110;8.468;2023-03-23T08:22:20;8.70;;;2.72;;
22064;SDS011;11197;53.110;8.468;2023-03-23T08:25:13;9.23;;;2.53;;
22064;SDS011;11197;53.110;8.468;2023-03-23T08:28:03;7.93;;;2.35;;
22064;SDS011;11197;53.110;8.468;2023-03-23T08:30:48;10.40;;;2.72;;
22064;SDS011;11197;53.110;8.468;2023-03-23T08:33:41;6.85;;;2.40;;
22064;SDS011;11197;53.110;8.468;2023-03-23T08:36:26;10.93;;;2.58;;
22064;SDS011;11197;53.110;8.468;2023-03-23T08:39:04;10.30;;;2.38;;
22064;SDS011;11197;53.110;8.468;2023-03-23T08:41:37;10.40;;;2.55;;
22064;SDS011;11197;53.110;8.468;2023-03-23T08:44:26;7.25;;;2.20;;
22064;SDS011;11197;53.110;8.468;2023-03-23T08:47:08;9.02;;;1.75;;
22064;SDS011;11197;53.110;8.468;2023-03-23T08:49:54;6.00;;;2.00;;
22064;SDS011;11197;53.110;8.468;2023-03-23T08:52:39;9.70;;;2.60;;
22064;SDS011;11197;53.110;8.468;2023-03-23T08:55:32;11.60;;;2.70;;
22064;SDS011;11197;53.110;8.468;2023-03-23T08:58:12;7.55;;;2.38;;
22064;SDS011;11197;53.110;8.468;2023-03-23T09:01:08;11.18;;;2.42;;
22064;SDS011;11197;53.110;8.468;2023-03-23T09:03:59;9.57;;;2.35;;
22064;SDS011;11197;53.110;8.468;2023-03-23T09:06:54;13.80;;;2.67;;
22064;SDS011;11197;53.110;8.468;2023-03-23T09:09:21;9.93;;;2.72;;
22064;SDS011;11197;53.110;8.468;2023-03-23T09:11:47;11.88;;;2.80;;
22064;SDS011;11197;53.110;8.468;2023-03-23T09:14:13;10.05;;;2.78;;
22064;SDS011;11197;53.110;8.468;2023-03-23T09:16:39;11.70;;;3.30;;
22064;SDS011;11197;53.110;8.468;2023-03-23T09:19:05;12.35;;;2.90;;
22064;SDS011;11197;53.110;8.468;2023-03-23T09:21:34;9.98;;;3.20;;
22064;SDS011;11197;53.110;8.468;2023-03-23T09:24:01;9.30;;;3.30;;
22064;SDS011;11197;53.110;8.468;2023-03-23T09:26:27;9.10;;;2.60;;
22064;SDS011;11197;53.110;8.468;2023-03-23T09:28:53;11.82;;;2.90;;
22064;SDS011;11197;53.110;8.468;2023-03-23T09:31:22;7.00;;;2.65;;
22064;SDS011;11197;53.110;8.468;2023-03-23T09:33:51;8.95;;;2.60;;
22064;SDS011;11197;53.110;8.468;2023-03-23T09:36:20;7.80;;;2.60;;
22064;SDS011;11197;53.110;8.468;2023-03-23T09:38:50;8.13;;;2.70;;
22064;SDS011;11197;53.110;8.468;2023-03-23T09:50:16;9.57;;;2.50;;
22064;SDS011;11197;53.110;8.468;2023-03-23T09:52:52;7.35;;;2.90;;
22064;SDS011;11197;53.110;8.468;2023-03-23T09:55:21;9.43;;;2.83;;
22064;SDS011;11197;53.110;8.468;2023-03-23T10:00:47;10.57;;;3.22;;
22064;SDS011;11197;53.110;8.468;2023-03-23T10:03:19;10.00;;;2.65;;
22064;SDS011;11197;53.110;8.468;2023-03-23T10:05:56;8.52;;;2.85;;
22064;SDS011;11197;53.110;8.468;2023-03-23T10:08:23;13.27;;;3.30;;
22064;SDS011;11197;53.110;8.468;2023-03-23T10:16:11;10.10;;;3.35;;
22064;SDS011;11197;53.110;8.468;2023-03-23T10:21:35;13.48;;;3.00;;
22064;SDS011;11197;53.110;8.468;2023-03-23T10:24:04;12.53;;;3.27;;
22064;SDS011;11197;53.110;8.468;2023-03-23T10:29:30;12.90;;;3.00;;
22064;SDS011;11197;53.110;8.468;2023-03-23T10:32:11;12.70;;;3.13;;
22064;SDS011;11197;53.110;8.468;2023-03-23T10:34:56;12.98;;;3.33;;
22064;SDS011;11197;53.110;8.468;2023-03-23T10:37:29;13.43;;;3.70;;
22064;SDS011;11197;53.110;8.468;2023-03-23T10:39:59;8.75;;;2.95;;
22064;SDS011;11197;53.110;8.468;2023-03-23T10:42:29;17.47;;;3.80;;
22064;SDS011;11197;53.110;8.468;2023-03-23T10:45:09;13.52;;;4.15;;
22064;SDS011;11197;53.110;8.468;2023-03-23T10:47:42;13.07;;;3.50;;
22064;SDS011;11197;53.110;8.468;2023-03-23T10:50:14;14.18;;;3.67;;
22064;SDS011;11197;53.110;8.468;2023-03-23T10:52:43;13.67;;;3.93;;
22064;SDS011;11197;53.110;8.468;2023-03-23T10:55:15;12.05;;;3.33;;
22064;SDS011;11197;53.110;8.468;2023-03-23T10:57:44;11.60;;;3.10;;
22064;SDS011;11197;53.110;8.468;2023-03-23T11:00:19;13.52;;;3.33;;
22064;SDS011;11197;53.110;8.468;2023-03-23T11:02:47;13.13;;;3.60;;
22064;SDS011;11197;53.110;8.468;2023-03-23T11:08:12;12.23;;;3.47;;
22064;SDS011;11197;53.110;8.468;2023-03-23T11:11:11;16.08;;;3.85;;
22064;SDS011;11197;53.110;8.468;2023-03-23T11:13:45;19.70;;;4.10;;
22064;SDS011;11197;53.110;8.468;2023-03-23T11:16:31;10.63;;;4.15;;
22064;SDS011;11197;53.110;8.468;2023-03-23T11:19:00;13.82;;;3.20;;
22064;SDS011;11197;53.110;8.468;2023-03-23T11:21:37;13.70;;;3.30;;
22064;SDS011;11197;53.110;8.468;2023-03-23T11:24:04;10.75;;;3.40;;
22064;SDS011;11197;53.110;8.468;2023-03-23T11:26:32;10.85;;;3.10;;
22064;SDS011;11197;53.110;8.468;2023-03-23T11:29:12;10.65;;;3.55;;
22064;SDS011;11197;53.110;8.468;2023-03-23T11:31:41;11.30;;;3.10;;
22064;SDS011;11197;53.110;8.468;2023-03-23T11:34:30;10.10;;;2.80;;
22064;SDS011;11197;53.110;8.468;2023-03-23T11:39:48;9.18;;;2.70;;
22064;SDS011;11197;53.110;8.468;2023-03-23T11:42:34;8.73;;;2.25;;
22064;SDS011;11197;53.110;8.468;2023-03-23T11:50:30;6.22;;;1.77;;
22064;SDS011;11197;53.110;8.468;2023-03-23T11:58:11;7.78;;;2.25;;
22064;SDS011;11197;53.110;8.468;2023-03-23T12:06:21;9.88;;;2.50;;
22064;SDS011;11197;53.110;8.468;2023-03-23T12:09:04;6.70;;;3.00;;
22064;SDS011;11197;53.110;8.468;2023-03-23T12:17:11;6.25;;;3.03;;
22064;SDS011;11197;53.110;8.468;2023-03-23T12:22:42;5.78;;;2.70;;
22064;SDS011;11197;53.110;8.468;2023-03-23T12:25:20;6.95;;;2.75;;
22064;SDS011;11197;53.110;8.468;2023-03-23T12:38:50;4.47;;;2.00;;
22064;SDS011;11197;53.110;8.468;2023-03-23T12:44:18;8.73;;;2.42;;
22064;SDS011;11197;53.110;8.468;2023-03-23T12:49:48;5.90;;;2.17;;
22064;SDS011;11197;53.110;8.468;2023-03-23T12:52:36;8.82;;;2.03;;
22064;SDS011;11197;53.110;8.468;2023-03-23T12:55:27;6.18;;;2.03;;
22064;SDS011;11197;53.110;8.468;2023-03-23T13:11:36;7.00;;;1.98;;
22064;SDS011;11197;53.110;8.468;2023-03-23T13:14:09;7.50;;;2.45;;
22064;SDS011;11197;53.110;8.468;2023-03-23T13:28:15;8.20;;;1.92;;
22064;SDS011;11197;53.110;8.468;2023-03-23T13:30:53;6.80;;;2.13;;
22064;SDS011;11197;53.110;8.468;2023-03-23T13:33:20;6.53;;;1.90;;
22064;SDS011;11197;53.110;8.468;2023-03-23T13:35:46;7.40;;;1.80;;
22064;SDS011;11197;53.110;8.468;2023-03-23T13:38:20;5.03;;;1.50;;
22064;SDS011;11197;53.110;8.468;2023-03-23T13:40:49;4.90;;;1.50;;
22064;SDS011;11197;53.110;8.468;2023-03-23T13:43:25;6.85;;;1.30;;
22064;SDS011;11197;53.110;8.468;2023-03-23T13:45:52;4.43;;;1.10;;
22064;SDS011;11197;53.110;8.468;2023-03-23T13:48:22;4.85;;;1.35;;
22064;SDS011;11197;53.110;8.468;2023-03-23T13:50:57;4.65;;;1.30;;
22064;SDS011;11197;53.110;8.468;2023-03-23T13:53:29;4.70;;;1.20;;
22064;SDS011;11197;53.110;8.468;2023-03-23T13:58:53;4.15;;;1.08;;
22064;SDS011;11197;53.110;8.468;2023-03-23T14:01:36;5.38;;;1.10;;
22064;SDS011;11197;53.110;8.468;2023-03-23T14:04:07;3.88;;;1.13;;
22064;SDS011;11197;53.110;8.468;2023-03-23T14:06:41;5.70;;;1.23;;
22064;SDS011;11197;53.110;8.468;2023-03-23T14:09:16;3.95;;;1.08;;
22064;SDS011;11197;53.110;8.468;2023-03-23T14:12:03;3.58;;;1.02;;
22064;SDS011;11197;53.110;8.468;2023-03-23T14:14:48;5.35;;;1.55;;
22064;SDS011;11197;53.110;8.468;2023-03-23T14:17:19;6.03;;;1.38;;
22064;SDS011;11197;53.110;8.468;2023-03-23T14:19:50;5.53;;;1.20;;
22064;SDS011;11197;53.110;8.468;2023-03-23T14:22:26;4.57;;;1.10;;
22064;SDS011;11197;53.110;8.468;2023-03-23T14:25:16;7.32;;;2.50;;
22064;SDS011;11197;53.110;8.468;2023-03-23T14:27:43;4.63;;;1.65;;
22064;SDS011;11197;53.110;8.468;2023-03-23T14:30:14;4.55;;;1.42;;
22064;SDS011;11197;53.110;8.468;2023-03-23T14:32:42;7.93;;;1.88;;
22064;SDS011;11197;53.110;8.468;2023-03-23T14:35:30;4.45;;;1.60;;
22064;SDS011;11197;53.110;8.468;2023-03-23T14:37:58;8.00;;;1.80;;
22064;SDS011;11197;53.110;8.468;2023-03-23T14:40:25;5.50;;;1.52;;
22064;SDS011;11197;53.110;8.468;2023-03-23T14:42:53;7.47;;;1.98;;
22064;SDS011;11197;53.110;8.468;2023-03-23T14:45:20;7.32;;;1.70;;
22064;SDS011;11197;53.110;8.468;2023-03-23T14:47:55;7.05;;;1.77;;
22064;SDS011;11197;53.110;8.468;2023-03-23T14:50:28;6.43;;;1.60;;
22064;SDS011;11197;53.110;8.468;2023-03-23T14:52:59;6.55;;;1.77;;
22064;SDS011;11197;53.110;8.468;2023-03-23T14:55:41;9.95;;;1.83;;
22064;SDS011;11197;53.110;8.468;2023-03-23T14:58:08;6.97;;;1.58;;
22064;SDS011;11197;53.110;8.468;2023-03-23T15:00:40;5.95;;;1.48;;
22064;SDS011;11197;53.110;8.468;2023-03-23T15:03:26;6.47;;;1.38;;
22064;SDS011;11197;53.110;8.468;2023-03-23T15:05:56;7.97;;;1.73;;
22064;SDS011;11197;53.110;8.468;2023-03-23T15:08:30;9.00;;;1.80;;
22064;SDS011;11197;53.110;8.468;2023-03-23T15:13:36;9.32;;;2.00;;
22064;SDS011;11197;53.110;8.468;2023-03-23T15:16:29;7.40;;;2.00;;
22064;SDS011;11197;53.110;8.468;2023-03-23T15:21:48;10.20;;;1.90;;
22064;SDS011;11197;53.110;8.468;2023-03-23T15:24:25;7.97;;;1.80;;
22064;SDS011;11197;53.110;8.468;2023-03-23T15:29:50;7.03;;;1.50;;
22064;SDS011;11197;53.110;8.468;2023-03-23T15:32:29;8.90;;;1.90;;
22064;SDS011;11197;53.110;8.468;2023-03-23T15:35:03;8.50;;;1.70;;
22064;SDS011;11197;53.110;8.468;2023-03-23T15:37:39;6.68;;;1.80;;
22064;SDS011;11197;53.110;8.468;2023-03-23T15:40:26;8.67;;;1.83;;
22064;SDS011;11197;53.110;8.468;2023-03-23T15:45:33;7.13;;;1.67;;
22064;SDS011;11197;53.110;8.468;2023-03-23T15:48:12;7.47;;;1.50;;
22064;SDS011;11197;53.110;8.468;2023-03-23T15:50:39;6.97;;;1.98;;
22064;SDS011;11197;53.110;8.468;2023-03-23T15:53:19;8.07;;;1.80;;
22064;SDS011;11197;53.110;8.468;2023-03-23T15:55:52;7.75;;;1.42;;
22064;SDS011;11197;53.110;8.468;2023-03-23T15:58:18;6.57;;;1.50;;
22064;SDS011;11197;53.110;8.468;2023-03-23T16:00:44;5.45;;;1.33;;
22064;SDS011;11197;53.110;8.468;2023-03-23T16:03:17;7.93;;;1.77;;
22064;SDS011;11197;53.110;8.468;2023-03-23T16:05:49;10.15;;;2.00;;
22064;SDS011;11197;53.110;8.468;2023-03-23T16:08:16;7.43;;;1.60;;
22064;SDS011;11197;53.110;8.468;2023-03-23T16:10:42;5.68;;;1.50;;
22064;SDS011;11197;53.110;8.468;2023-03-23T16:13:08;4.60;;;1.60;;
22064;SDS011;11197;53.110;8.468;2023-03-23T16:15:34;8.65;;;1.67;;
22064;SDS011;11197;53.110;8.468;2023-03-23T16:18:00;6.78;;;1.55;;
22064;SDS011;11197;53.110;8.468;2023-03-23T16:20:27;6.45;;;1.42;;
22064;SDS011;11197;53.110;8.468;2023-03-23T16:22:57;7.57;;;1.42;;
22064;SDS011;11197;53.110;8.468;2023-03-23T16:25:24;7.32;;;1.63;;
22064;SDS011;11197;53.110;8.468;2023-03-23T16:27:51;6.35;;;1.67;;
22064;SDS011;11197;53.110;8.468;2023-03-23T16:30:26;5.13;;;1.50;;
22064;SDS011;11197;53.110;8.468;2023-03-23T16:32:54;4.00;;;1.35;;
22064;SDS011;11197;53.110;8.468;2023-03-23T16:35:20;6.05;;;1.50;;
22064;SDS011;11197;53.110;8.468;2023-03-23T16:37:47;6.10;;;1.30;;
22064;SDS011;11197;53.110;8.468;2023-03-23T16:40:15;4.88;;;1.50;;
22064;SDS011;11197;53.110;8.468;2023-03-23T16:42:42;6.88;;;1.58;;
22064;SDS011;11197;53.110;8.468;2023-03-23T16:45:08;5.40;;;1.40;;
22064;SDS011;11197;53.110;8.468;2023-03-23T16:47:36;6.72;;;2.70;;
22064;SDS011;11197;53.110;8.468;2023-03-23T16:50:02;6.03;;;1.67;;
22064;SDS011;11197;53.110;8.468;2023-03-23T16:52:31;6.30;;;1.80;;
22064;SDS011;11197;53.110;8.468;2023-03-23T16:54:57;5.85;;;1.67;;
22064;SDS011;11197;53.110;8.468;2023-03-23T16:57:23;5.13;;;1.77;;
22064;SDS011;11197;53.110;8.468;2023-03-23T16:59:50;8.18;;;1.38;;
22064;SDS011;11197;53.110;8.468;2023-03-23T17:02:16;5.65;;;1.73;;
22064;SDS011;11197;53.110;8.468;2023-03-23T17:04:43;6.25;;;1.60;;
22064;SDS011;11197;53.110;8.468;2023-03-23T17:07:11;8.30;;;1.90;;
22064;SDS011;11197;53.110;8.468;2023-03-23T17:09:37;6.10;;;1.95;;
22064;SDS011;11197;53.110;8.468;2023-03-23T17:12:04;7.72;;;1.80;;
22064;SDS011;11197;53.110;8.468;2023-03-23T17:14:30;5.60;;;1.48;;
22064;SDS011;11197;53.110;8.468;2023-03-23T17:16:57;6.50;;;1.80;;
22064;SDS011;11197;53.110;8.468;2023-03-23T17:19:23;21.17;;;8.38;;
22064;SDS011;11197;53.110;8.468;2023-03-23T17:21:49;54.17;;;25.65;;
22064;SDS011;11197;53.110;8.468;2023-03-23T17:24:15;18.20;;;7.72;;
22064;SDS011;11197;53.110;8.468;2023-03-23T17:26:42;11.52;;;3.65;;
22064;SDS011;11197;53.110;8.468;2023-03-23T17:29:08;9.35;;;3.20;;
22064;SDS011;11197;53.110;8.468;2023-03-23T17:31:34;8.65;;;2.38;;
22064;SDS011;11197;53.110;8.468;2023-03-23T17:34:00;9.60;;;3.65;;
22064;SDS011;11197;53.110;8.468;2023-03-23T17:36:26;7.90;;;2.72;;
22064;SDS011;11197;53.110;8.468;2023-03-23T17:38:52;8.63;;;1.73;;
22064;SDS011;11197;53.110;8.468;2023-03-23T17:41:18;4.88;;;1.80;;
22064;SDS011;11197;53.110;8.468;2023-03-23T17:43:47;8.05;;;2.70;;
22064;SDS011;11197;53.110;8.468;2023-03-23T17:46:13;7.53;;;3.33;;